sensor_id;sensor_type;location;lat;lon;timestamp;temperature;humidity
19025;DHT22;9645;51.448;6.260;2023-03-01T00:07:16;-0.90;99.90
19025;DHT22;9645;51.448;6.260;2023-03-01T00:12:12;-1.00;99.90
19025;DHT22;9645;51.448;6.260;2023-03-01T00:22:02;-1.00;99.90
19025;DHT22;9645;51.448;6.260;2023-03-01T00:29:26;-1.00;99.90
19025;DHT22;9645;51.448;6.260;2023-03-01T00:31:52;-0.90;99.90
19025;DHT22;9645;51.448;6.260;2023-03-01T00:39:15;-1.00;99.90
19025;DHT22;9645;51.448;6.260;2023-03-01T00:41:42;-1.10;99.90
19025;DHT22;9645;51.448;6.260;2023-03-01T00:44:10;-1.10;99.90
19025;DHT22;9645;51.448;6.260;2023-03-01T00:46:39;-1.10;99.90
19025;DHT22;9645;51.448;6.260;2023-03-01T00:54:01;-1.40;99.90
19025;DHT22;9645;51.448;6.260;2023-03-01T00:56:28;-1.40;99.90
19025;DHT22;9645;51.448;6.260;2023-03-01T00:58:56;-1.40;99.90
19025;DHT22;9645;51.448;6.260;2023-03-01T01:01:25;-1.50;99.90
19025;DHT22;9645;51.448;6.260;2023-03-01T01:03:58;-1.50;99.90
19025;DHT22;9645;51.448;6.260;2023-03-01T01:06:27;-1.50;99.90
19025;DHT22;9645;51.448;6.260;2023-03-01T01:08:55;-1.50;99.90
19025;DHT22;9645;51.448;6.260;2023-03-01T01:11:24;-1.50;99.90
19025;DHT22;9645;51.448;6.260;2023-03-01T01:13:51;-1.70;99.90
19025;DHT22;9645;51.448;6.260;2023-03-01T01:16:20;-1.70;99.90
19025;DHT22;9645;51.448;6.260;2023-03-01T01:18:47;-1.70;99.90
19025;DHT22;9645;51.448;6.260;2023-03-01T01:21:18;-1.60;99.90
19025;DHT22;9645;51.448;6.260;2023-03-01T01:26:14;-1.70;99.90
19025;DHT22;9645;51.448;6.260;2023-03-01T01:31:09;-1.70;99.90
19025;DHT22;9645;51.448;6.260;2023-03-01T01:33:37;-1.80;99.90
19025;DHT22;9645;51.448;6.260;2023-03-01T01:36:05;-1.70;99.90
19025;DHT22;9645;51.448;6.260;2023-03-01T01:38:34;-1.80;99.90
19025;DHT22;9645;51.448;6.260;2023-03-01T01:41:02;-1.80;99.90
19025;DHT22;9645;51.448;6.260;2023-03-01T01:43:31;-1.90;99.90
19025;DHT22;9645;51.448;6.260;2023-03-01T01:46:02;-2.00;99.90
19025;DHT22;9645;51.448;6.260;2023-03-01T01:48:37;-1.90;99.90
19025;DHT22;9645;51.448;6.260;2023-03-01T01:51:09;-1.90;99.90
19025;DHT22;9645;51.448;6.260;2023-03-01T01:53:39;-2.00;99.90
19025;DHT22;9645;51.448;6.260;2023-03-01T01:56:09;-2.10;99.90
19025;DHT22;9645;51.448;6.260;2023-03-01T02:01:05;-2.20;99.90
19025;DHT22;9645;51.448;6.260;2023-03-01T02:03:33;-3.20;99.90
19025;DHT22;9645;51.448;6.260;2023-03-01T02:06:06;-2.30;99.90
19025;DHT22;9645;51.448;6.260;2023-03-01T02:08:39;-2.30;99.90
19025;DHT22;9645;51.448;6.260;2023-03-01T02:11:08;-2.30;99.90
19025;DHT22;9645;51.448;6.260;2023-03-01T02:13:35;-2.20;99.90
19025;DHT22;9645;51.448;6.260;2023-03-01T02:16:03;-2.30;99.90
19025;DHT22;9645;51.448;6.260;2023-03-01T02:21:12;-2.30;99.90
19025;DHT22;9645;51.448;6.260;2023-03-01T02:23:42;-2.30;99.90
19025;DHT22;9645;51.448;6.260;2023-03-01T02:26:15;-2.30;99.90
19025;DHT22;9645;51.448;6.260;2023-03-01T02:28:46;-2.30;99.90
19025;DHT22;9645;51.448;6.260;2023-03-01T02:31:17;-2.20;99.90
19025;DHT22;9645;51.448;6.260;2023-03-01T02:36:34;-2.20;99.90
19025;DHT22;9645;51.448;6.260;2023-03-01T02:39:04;-2.20;99.90
19025;DHT22;9645;51.448;6.260;2023-03-01T02:41:35;-2.20;99.90
19025;DHT22;9645;51.448;6.260;2023-03-01T02:44:04;-2.30;99.90
19025;DHT22;9645;51.448;6.260;2023-03-01T02:46:31;-2.50;99.90
19025;DHT22;9645;51.448;6.260;2023-03-01T02:48:58;-2.40;99.90
19025;DHT22;9645;51.448;6.260;2023-03-01T02:51:42;-2.50;99.90
19025;DHT22;9645;51.448;6.260;2023-03-01T02:54:17;-2.50;99.90
19025;DHT22;9645;51.448;6.260;2023-03-01T02:56:48;-2.60;99.90
19025;DHT22;9645;51.448;6.260;2023-03-01T02:59:19;-2.60;99.90
19025;DHT22;9645;51.448;6.260;2023-03-01T03:04:15;-2.60;99.90
19025;DHT22;9645;51.448;6.260;2023-03-01T03:06:44;-2.60;99.90
19025;DHT22;9645;51.448;6.260;2023-03-01T03:09:11;-2.60;99.90
19025;DHT22;9645;51.448;6.260;2023-03-01T03:11:38;-2.70;99.90
19025;DHT22;9645;51.448;6.260;2023-03-01T03:16:41;-2.70;99.90
19025;DHT22;9645;51.448;6.260;2023-03-01T03:21:36;-2.90;99.90
19025;DHT22;9645;51.448;6.260;2023-03-01T03:24:03;-2.70;99.90
19025;DHT22;9645;51.448;6.260;2023-03-01T03:26:30;-2.80;99.90
19025;DHT22;9645;51.448;6.260;2023-03-01T03:28:57;-2.90;99.90
19025;DHT22;9645;51.448;6.260;2023-03-01T03:31:24;-2.70;99.90
19025;DHT22;9645;51.448;6.260;2023-03-01T03:33:53;-2.70;99.90
19025;DHT22;9645;51.448;6.260;2023-03-01T03:36:23;-2.60;99.90
19025;DHT22;9645;51.448;6.260;2023-03-01T03:41:17;-2.70;99.90
19025;DHT22;9645;51.448;6.260;2023-03-01T03:43:44;-2.70;99.90
19025;DHT22;9645;51.448;6.260;2023-03-01T03:48:40;-2.70;99.90
19025;DHT22;9645;51.448;6.260;2023-03-01T03:51:12;-2.80;99.90
19025;DHT22;9645;51.448;6.260;2023-03-01T03:53:40;-2.80;99.90
19025;DHT22;9645;51.448;6.260;2023-03-01T03:56:08;-2.70;99.90
19025;DHT22;9645;51.448;6.260;2023-03-01T03:58:35;-2.70;99.90
19025;DHT22;9645;51.448;6.260;2023-03-01T04:01:02;-2.70;99.90
19025;DHT22;9645;51.448;6.260;2023-03-01T04:03:30;-2.70;99.90
19025;DHT22;9645;51.448;6.260;2023-03-01T04:08:27;-2.70;99.90
19025;DHT22;9645;51.448;6.260;2023-03-01T04:10:59;-2.60;99.90
19025;DHT22;9645;51.448;6.260;2023-03-01T04:18:41;-2.70;99.90
19025;DHT22;9645;51.448;6.260;2023-03-01T04:21:08;-2.70;99.90
19025;DHT22;9645;51.448;6.260;2023-03-01T04:23:37;-2.80;99.90
19025;DHT22;9645;51.448;6.260;2023-03-01T04:26:06;-2.80;99.90
19025;DHT22;9645;51.448;6.260;2023-03-01T04:28:35;-2.90;99.90
19025;DHT22;9645;51.448;6.260;2023-03-01T04:31:05;-3.00;99.90
19025;DHT22;9645;51.448;6.260;2023-03-01T04:36:08;-3.10;99.90
19025;DHT22;9645;51.448;6.260;2023-03-01T04:38:37;-3.00;99.90
19025;DHT22;9645;51.448;6.260;2023-03-01T04:41:05;-3.10;99.90
19025;DHT22;9645;51.448;6.260;2023-03-01T04:43:32;-3.10;99.90
19025;DHT22;9645;51.448;6.260;2023-03-01T04:46:03;-3.10;99.90
19025;DHT22;9645;51.448;6.260;2023-03-01T04:48:31;-2.90;99.90
19025;DHT22;9645;51.448;6.260;2023-03-01T04:53:26;-3.20;99.90
19025;DHT22;9645;51.448;6.260;2023-03-01T04:55:56;-3.10;99.90
19025;DHT22;9645;51.448;6.260;2023-03-01T04:58:23;-3.10;99.90
19025;DHT22;9645;51.448;6.260;2023-03-01T05:00:50;-2.90;99.90
19025;DHT22;9645;51.448;6.260;2023-03-01T05:03:17;-3.00;99.90
19025;DHT22;9645;51.448;6.260;2023-03-01T05:05:45;-3.00;99.90
19025;DHT22;9645;51.448;6.260;2023-03-01T05:08:13;-3.00;99.90
19025;DHT22;9645;51.448;6.260;2023-03-01T05:10:45;-2.90;99.90
19025;DHT22;9645;51.448;6.260;2023-03-01T05:13:14;-3.00;99.90
19025;DHT22;9645;51.448;6.260;2023-03-01T05:15:47;-2.90;99.90
19025;DHT22;9645;51.448;6.260;2023-03-01T05:18:14;-2.90;99.90
19025;DHT22;9645;51.448;6.260;2023-03-01T05:20:41;-3.00;99.90
19025;DHT22;9645;51.448;6.260;2023-03-01T05:25:37;-2.90;99.90
19025;DHT22;9645;51.448;6.260;2023-03-01T05:28:07;-3.00;99.90
19025;DHT22;9645;51.448;6.260;2023-03-01T05:30:38;-2.90;99.90
19025;DHT22;9645;51.448;6.260;2023-03-01T05:33:06;-2.80;99.90
19025;DHT22;9645;51.448;6.260;2023-03-01T05:35:39;-3.00;99.90
19025;DHT22;9645;51.448;6.260;2023-03-01T05:38:07;-3.00;99.90
19025;DHT22;9645;51.448;6.260;2023-03-01T05:43:01;-2.90;99.90
19025;DHT22;9645;51.448;6.260;2023-03-01T05:45:31;-3.00;99.90
19025;DHT22;9645;51.448;6.260;2023-03-01T05:48:01;-3.00;99.90
19025;DHT22;9645;51.448;6.260;2023-03-01T05:50:32;-3.00;99.90
19025;DHT22;9645;51.448;6.260;2023-03-01T05:53:02;-3.10;99.90
19025;DHT22;9645;51.448;6.260;2023-03-01T05:55:30;-3.10;99.90
19025;DHT22;9645;51.448;6.260;2023-03-01T05:57:58;-3.00;99.90
19025;DHT22;9645;51.448;6.260;2023-03-01T06:00:26;-3.10;99.90
19025;DHT22;9645;51.448;6.260;2023-03-01T06:05:22;-3.10;99.90
19025;DHT22;9645;51.448;6.260;2023-03-01T06:07:50;-3.00;99.90
19025;DHT22;9645;51.448;6.260;2023-03-01T06:10:18;-3.10;99.90
19025;DHT22;9645;51.448;6.260;2023-03-01T06:12:46;-3.10;99.90
19025;DHT22;9645;51.448;6.260;2023-03-01T06:15:14;-3.00;99.90
19025;DHT22;9645;51.448;6.260;2023-03-01T06:17:44;-3.00;99.90
19025;DHT22;9645;51.448;6.260;2023-03-01T06:20:13;-3.00;99.90
19025;DHT22;9645;51.448;6.260;2023-03-01T06:22:43;-3.00;99.90
19025;DHT22;9645;51.448;6.260;2023-03-01T06:25:10;-2.90;99.90
19025;DHT22;9645;51.448;6.260;2023-03-01T06:30:06;-2.70;99.90
19025;DHT22;9645;51.448;6.260;2023-03-01T06:39:58;-2.80;99.90
19025;DHT22;9645;51.448;6.260;2023-03-01T06:44:57;-2.80;99.90
19025;DHT22;9645;51.448;6.260;2023-03-01T06:49:52;-2.70;99.90
19025;DHT22;9645;51.448;6.260;2023-03-01T06:52:19;-2.80;99.90
19025;DHT22;9645;51.448;6.260;2023-03-01T06:57:14;-2.70;99.90
19025;DHT22;9645;51.448;6.260;2023-03-01T07:02:10;-2.60;99.90
19025;DHT22;9645;51.448;6.260;2023-03-01T07:07:05;-1.80;99.90
19025;DHT22;9645;51.448;6.260;2023-03-01T07:11:59;2.10;99.90
19025;DHT22;9645;51.448;6.260;2023-03-01T07:14:28;4.10;99.90
19025;DHT22;9645;51.448;6.260;2023-03-01T07:16:55;5.30;99.90
19025;DHT22;9645;51.448;6.260;2023-03-01T07:21:50;7.40;99.90
19025;DHT22;9645;51.448;6.260;2023-03-01T07:29:11;8.90;99.90
19025;DHT22;9645;51.448;6.260;2023-03-01T07:31:40;9.60;99.90
19025;DHT22;9645;51.448;6.260;2023-03-01T07:34:07;9.40;99.90
19025;DHT22;9645;51.448;6.260;2023-03-01T07:36:34;8.00;99.90
19025;DHT22;9645;51.448;6.260;2023-03-01T07:39:01;5.30;99.90
19025;DHT22;9645;51.448;6.260;2023-03-01T07:41:28;4.30;99.90
19025;DHT22;9645;51.448;6.260;2023-03-01T07:43:56;4.60;99.90
19025;DHT22;9645;51.448;6.260;2023-03-01T07:46:23;6.00;99.90
19025;DHT22;9645;51.448;6.260;2023-03-01T07:48:51;6.50;99.90
19025;DHT22;9645;51.448;6.260;2023-03-01T07:51:19;5.90;99.90
19025;DHT22;9645;51.448;6.260;2023-03-01T07:53:47;6.30;99.90
19025;DHT22;9645;51.448;6.260;2023-03-01T07:56:15;7.60;99.90
19025;DHT22;9645;51.448;6.260;2023-03-01T07:58:44;8.60;99.90
19025;DHT22;9645;51.448;6.260;2023-03-01T08:01:13;8.60;99.90
19025;DHT22;9645;51.448;6.260;2023-03-01T08:03:41;8.90;99.90
19025;DHT22;9645;51.448;6.260;2023-03-01T08:06:11;8.90;99.90
19025;DHT22;9645;51.448;6.260;2023-03-01T08:08:38;9.20;99.90
19025;DHT22;9645;51.448;6.260;2023-03-01T08:11:07;9.50;99.90
19025;DHT22;9645;51.448;6.260;2023-03-01T08:13:34;10.90;99.90
19025;DHT22;9645;51.448;6.260;2023-03-01T08:18:29;13.90;99.90
19025;DHT22;9645;51.448;6.260;2023-03-01T08:21:01;15.20;99.90
19025;DHT22;9645;51.448;6.260;2023-03-01T08:23:30;15.90;99.90
19025;DHT22;9645;51.448;6.260;2023-03-01T08:26:04;16.40;99.90
19025;DHT22;9645;51.448;6.260;2023-03-01T08:28:31;17.00;99.90
19025;DHT22;9645;51.448;6.260;2023-03-01T08:30:58;18.00;99.90
19025;DHT22;9645;51.448;6.260;2023-03-01T08:33:25;18.30;99.90
19025;DHT22;9645;51.448;6.260;2023-03-01T08:35:52;18.40;99.90
19025;DHT22;9645;51.448;6.260;2023-03-01T08:38:19;18.20;99.90
19025;DHT22;9645;51.448;6.260;2023-03-01T08:40:48;18.30;99.90
19025;DHT22;9645;51.448;6.260;2023-03-01T08:43:15;18.80;99.90
19025;DHT22;9645;51.448;6.260;2023-03-01T08:45:43;19.40;99.90
19025;DHT22;9645;51.448;6.260;2023-03-01T08:48:10;19.60;99.90
19025;DHT22;9645;51.448;6.260;2023-03-01T08:50:37;19.80;99.90
19025;DHT22;9645;51.448;6.260;2023-03-01T08:53:04;20.00;99.90
19025;DHT22;9645;51.448;6.260;2023-03-01T08:55:31;19.90;99.90
19025;DHT22;9645;51.448;6.260;2023-03-01T08:58:00;19.70;99.90
19025;DHT22;9645;51.448;6.260;2023-03-01T09:00:27;20.20;99.90
19025;DHT22;9645;51.448;6.260;2023-03-01T09:02:54;20.40;99.90
19025;DHT22;9645;51.448;6.260;2023-03-01T09:05:21;21.10;99.90
19025;DHT22;9645;51.448;6.260;2023-03-01T09:07:48;21.10;99.90
19025;DHT22;9645;51.448;6.260;2023-03-01T09:10:15;21.30;99.90
19025;DHT22;9645;51.448;6.260;2023-03-01T09:12:43;21.70;99.90
19025;DHT22;9645;51.448;6.260;2023-03-01T09:15:11;20.90;99.90
19025;DHT22;9645;51.448;6.260;2023-03-01T09:17:38;20.80;99.90
19025;DHT22;9645;51.448;6.260;2023-03-01T09:20:08;20.50;99.90
19025;DHT22;9645;51.448;6.260;2023-03-01T09:22:35;20.40;99.90
19025;DHT22;9645;51.448;6.260;2023-03-01T09:25:02;20.10;99.90
19025;DHT22;9645;51.448;6.260;2023-03-01T09:27:29;20.10;99.90
19025;DHT22;9645;51.448;6.260;2023-03-01T09:29:56;20.10;99.90
19025;DHT22;9645;51.448;6.260;2023-03-01T09:32:25;19.90;99.90
19025;DHT22;9645;51.448;6.260;2023-03-01T09:34:54;19.80;99.90
19025;DHT22;9645;51.448;6.260;2023-03-01T09:37:30;19.80;99.90
19025;DHT22;9645;51.448;6.260;2023-03-01T09:39:57;20.40;99.90
19025;DHT22;9645;51.448;6.260;2023-03-01T09:42:25;20.00;99.90
19025;DHT22;9645;51.448;6.260;2023-03-01T09:44:55;20.60;99.90
19025;DHT22;9645;51.448;6.260;2023-03-01T09:47:29;21.60;99.90
19025;DHT22;9645;51.448;6.260;2023-03-01T09:50:02;22.10;99.90
19025;DHT22;9645;51.448;6.260;2023-03-01T09:52:36;22.50;99.90
19025;DHT22;9645;51.448;6.260;2023-03-01T09:55:10;22.40;99.90
19025;DHT22;9645;51.448;6.260;2023-03-01T09:57:43;22.10;99.90
19025;DHT22;9645;51.448;6.260;2023-03-01T10:00:29;22.40;99.90
19025;DHT22;9645;51.448;6.260;2023-03-01T10:03:02;21.80;99.90
19025;DHT22;9645;51.448;6.260;2023-03-01T10:05:41;21.70;99.90
19025;DHT22;9645;51.448;6.260;2023-03-01T10:08:29;22.90;99.90
19025;DHT22;9645;51.448;6.260;2023-03-01T10:10:59;22.70;99.90
19025;DHT22;9645;51.448;6.260;2023-03-01T10:13:33;21.60;99.90
19025;DHT22;9645;51.448;6.260;2023-03-01T10:16:09;21.20;99.90
19025;DHT22;9645;51.448;6.260;2023-03-01T10:18:40;21.50;99.90
19025;DHT22;9645;51.448;6.260;2023-03-01T10:21:14;21.10;99.90
19025;DHT22;9645;51.448;6.260;2023-03-01T10:23:43;21.30;99.90
19025;DHT22;9645;51.448;6.260;2023-03-01T10:26:30;21.00;99.90
19025;DHT22;9645;51.448;6.260;2023-03-01T10:29:04;20.80;99.90
19025;DHT22;9645;51.448;6.260;2023-03-01T10:31:39;21.10;99.90
19025;DHT22;9645;51.448;6.260;2023-03-01T10:34:12;21.50;99.90
19025;DHT22;9645;51.448;6.260;2023-03-01T10:36:42;21.40;99.90
19025;DHT22;9645;51.448;6.260;2023-03-01T10:39:16;20.80;99.90
19025;DHT22;9645;51.448;6.260;2023-03-01T10:41:55;21.70;99.90
19025;DHT22;9645;51.448;6.260;2023-03-01T10:44:44;21.90;99.90
19025;DHT22;9645;51.448;6.260;2023-03-01T10:47:19;21.20;99.90
19025;DHT22;9645;51.448;6.260;2023-03-01T10:50:00;20.90;99.90
19025;DHT22;9645;51.448;6.260;2023-03-01T10:52:30;20.70;99.90
19025;DHT22;9645;51.448;6.260;2023-03-01T10:55:00;21.00;99.90
19025;DHT22;9645;51.448;6.260;2023-03-01T10:57:34;20.80;99.90
19025;DHT22;9645;51.448;6.260;2023-03-01T11:00:23;20.60;99.90
19025;DHT22;9645;51.448;6.260;2023-03-01T11:03:02;21.30;99.90
19025;DHT22;9645;51.448;6.260;2023-03-01T11:05:31;21.40;99.90
19025;DHT22;9645;51.448;6.260;2023-03-01T11:08:01;21.50;99.90
19025;DHT22;9645;51.448;6.260;2023-03-01T11:10:30;21.50;99.90
19025;DHT22;9645;51.448;6.260;2023-03-01T11:13:08;21.20;99.90
19025;DHT22;9645;51.448;6.260;2023-03-01T11:15:36;21.60;99.90
19025;DHT22;9645;51.448;6.260;2023-03-01T11:18:03;22.00;99.90
19025;DHT22;9645;51.448;6.260;2023-03-01T11:20:34;21.30;99.90
19025;DHT22;9645;51.448;6.260;2023-03-01T11:23:05;21.70;99.90
19025;DHT22;9645;51.448;6.260;2023-03-01T11:25:37;22.00;99.90
19025;DHT22;9645;51.448;6.260;2023-03-01T11:28:10;22.50;99.90
19025;DHT22;9645;51.448;6.260;2023-03-01T11:30:43;22.20;99.90
19025;DHT22;9645;51.448;6.260;2023-03-01T11:33:17;22.30;99.90
19025;DHT22;9645;51.448;6.260;2023-03-01T11:35:50;22.60;99.90
19025;DHT22;9645;51.448;6.260;2023-03-01T11:38:22;22.70;99.90
19025;DHT22;9645;51.448;6.260;2023-03-01T12:12:01;21.90;99.90
19025;DHT22;9645;51.448;6.260;2023-03-01T12:14:44;20.60;99.90
19025;DHT22;9645;51.448;6.260;2023-03-01T12:17:35;20.30;99.90
19025;DHT22;9645;51.448;6.260;2023-03-01T12:22:59;21.10;99.90
19025;DHT22;9645;51.448;6.260;2023-03-01T12:25:34;21.60;99.90
19025;DHT22;9645;51.448;6.260;2023-03-01T12:28:26;21.80;99.90
19025;DHT22;9645;51.448;6.260;2023-03-01T12:31:17;22.90;99.90
19025;DHT22;9645;51.448;6.260;2023-03-01T12:33:58;23.40;99.90
19025;DHT22;9645;51.448;6.260;2023-03-01T12:36:42;23.00;99.90
19025;DHT22;9645;51.448;6.260;2023-03-01T12:39:29;22.70;99.90
19025;DHT22;9645;51.448;6.260;2023-03-01T12:42:04;22.40;99.90
19025;DHT22;9645;51.448;6.260;2023-03-01T12:44:47;22.70;99.90
19025;DHT22;9645;51.448;6.260;2023-03-01T12:47:26;21.90;99.90
19025;DHT22;9645;51.448;6.260;2023-03-01T12:49:59;22.00;99.90
19025;DHT22;9645;51.448;6.260;2023-03-01T12:52:35;22.20;99.90
19025;DHT22;9645;51.448;6.260;2023-03-01T12:55:15;21.80;99.90
19025;DHT22;9645;51.448;6.260;2023-03-01T12:57:50;21.70;99.90
19025;DHT22;9645;51.448;6.260;2023-03-01T13:00:26;22.10;99.90
19025;DHT22;9645;51.448;6.260;2023-03-01T13:02:59;21.90;99.90
19025;DHT22;9645;51.448;6.260;2023-03-01T13:05:37;21.10;99.90
19025;DHT22;9645;51.448;6.260;2023-03-01T13:08:15;21.00;99.90
19025;DHT22;9645;51.448;6.260;2023-03-01T13:10:48;20.90;99.90
19025;DHT22;9645;51.448;6.260;2023-03-01T13:13:20;20.70;99.90
19025;DHT22;9645;51.448;6.260;2023-03-01T13:15:48;20.00;99.90
19025;DHT22;9645;51.448;6.260;2023-03-01T13:18:40;19.80;99.90
19025;DHT22;9645;51.448;6.260;2023-03-01T13:23:37;18.80;99.90
19025;DHT22;9645;51.448;6.260;2023-03-01T13:26:12;18.60;99.90
19025;DHT22;9645;51.448;6.260;2023-03-01T13:28:46;18.50;99.90
19025;DHT22;9645;51.448;6.260;2023-03-01T13:34:59;17.70;99.90
19025;DHT22;9645;51.448;6.260;2023-03-01T13:37:36;17.60;99.90
19025;DHT22;9645;51.448;6.260;2023-03-01T13:42:49;17.20;99.90
19025;DHT22;9645;51.448;6.260;2023-03-01T13:45:24;17.30;99.90
19025;DHT22;9645;51.448;6.260;2023-03-01T13:47:58;17.00;99.90
19025;DHT22;9645;51.448;6.260;2023-03-01T13:50:29;16.60;99.90
19025;DHT22;9645;51.448;6.260;2023-03-01T13:52:59;16.50;99.90
19025;DHT22;9645;51.448;6.260;2023-03-01T13:55:36;16.30;99.90
19025;DHT22;9645;51.448;6.260;2023-03-01T13:58:16;16.20;99.90
19025;DHT22;9645;51.448;6.260;2023-03-01T14:00:45;15.50;99.90
19025;DHT22;9645;51.448;6.260;2023-03-01T14:03:14;15.30;99.90
19025;DHT22;9645;51.448;6.260;2023-03-01T14:05:43;15.60;99.90
19025;DHT22;9645;51.448;6.260;2023-03-01T14:08:22;14.80;99.90
19025;DHT22;9645;51.448;6.260;2023-03-01T14:17:24;12.60;99.90
19025;DHT22;9645;51.448;6.260;2023-03-01T14:19:56;12.20;99.90
19025;DHT22;9645;51.448;6.260;2023-03-01T14:22:25;11.50;99.90
19025;DHT22;9645;51.448;6.260;2023-03-01T14:24:56;11.10;99.90
19025;DHT22;9645;51.448;6.260;2023-03-01T14:27:25;10.40;99.90
19025;DHT22;9645;51.448;6.260;2023-03-01T14:29:58;10.60;99.90
19025;DHT22;9645;51.448;6.260;2023-03-01T14:32:28;10.30;99.90
19025;DHT22;9645;51.448;6.260;2023-03-01T14:34:56;10.60;99.90
19025;DHT22;9645;51.448;6.260;2023-03-01T14:37:26;10.90;99.90
19025;DHT22;9645;51.448;6.260;2023-03-01T14:39:54;11.00;99.90
19025;DHT22;9645;51.448;6.260;2023-03-01T14:42:24;10.70;99.90
19025;DHT22;9645;51.448;6.260;2023-03-01T14:44:54;10.30;99.90
19025;DHT22;9645;51.448;6.260;2023-03-01T14:47:28;10.10;99.90
19025;DHT22;9645;51.448;6.260;2023-03-01T14:50:00;9.90;99.90
19025;DHT22;9645;51.448;6.260;2023-03-01T14:52:33;9.90;99.90
19025;DHT22;9645;51.448;6.260;2023-03-01T14:55:04;9.50;99.90
19025;DHT22;9645;51.448;6.260;2023-03-01T15:00:01;9.40;99.90
19025;DHT22;9645;51.448;6.260;2023-03-01T15:02:33;9.20;99.90
19025;DHT22;9645;51.448;6.260;2023-03-01T15:05:03;9.30;99.90
19025;DHT22;9645;51.448;6.260;2023-03-01T15:07:34;9.20;99.90
19025;DHT22;9645;51.448;6.260;2023-03-01T15:10:03;9.20;99.90
19025;DHT22;9645;51.448;6.260;2023-03-01T15:12:41;9.20;99.90
19025;DHT22;9645;51.448;6.260;2023-03-01T15:15:33;9.20;99.90
19025;DHT22;9645;51.448;6.260;2023-03-01T15:18:04;9.20;99.90
19025;DHT22;9645;51.448;6.260;2023-03-01T15:20:33;9.10;99.90
19025;DHT22;9645;51.448;6.260;2023-03-01T15:23:02;9.20;99.90
19025;DHT22;9645;51.448;6.260;2023-03-01T15:25:32;9.20;99.90
19025;DHT22;9645;51.448;6.260;2023-03-01T15:28:00;9.20;99.90
19025;DHT22;9645;51.448;6.260;2023-03-01T15:30:32;9.00;99.90
19025;DHT22;9645;51.448;6.260;2023-03-01T15:33:30;9.10;99.90
19025;DHT22;9645;51.448;6.260;2023-03-01T15:35:58;9.30;99.90
19025;DHT22;9645;51.448;6.260;2023-03-01T15:38:31;9.20;99.90
19025;DHT22;9645;51.448;6.260;2023-03-01T15:41:01;9.20;99.90
19025;DHT22;9645;51.448;6.260;2023-03-01T15:43:43;9.20;99.90
19025;DHT22;9645;51.448;6.260;2023-03-01T15:46:26;9.40;99.90
19025;DHT22;9645;51.448;6.260;2023-03-01T15:48:57;9.30;99.90
19025;DHT22;9645;51.448;6.260;2023-03-01T15:51:31;9.40;99.90
19025;DHT22;9645;51.448;6.260;2023-03-01T15:54:00;9.40;99.90
19025;DHT22;9645;51.448;6.260;2023-03-01T15:56:31;9.30;99.90
19025;DHT22;9645;51.448;6.260;2023-03-01T15:58:59;9.30;99.90
19025;DHT22;9645;51.448;6.260;2023-03-01T16:01:27;9.10;99.90
19025;DHT22;9645;51.448;6.260;2023-03-01T16:03:55;9.10;99.90
19025;DHT22;9645;51.448;6.260;2023-03-01T16:06:24;9.60;99.90
19025;DHT22;9645;51.448;6.260;2023-03-01T16:08:51;10.10;99.90
19025;DHT22;9645;51.448;6.260;2023-03-01T16:11:19;10.20;99.90
19025;DHT22;9645;51.448;6.260;2023-03-01T16:13:46;10.20;99.90
19025;DHT22;9645;51.448;6.260;2023-03-01T16:16:14;10.30;99.90
19025;DHT22;9645;51.448;6.260;2023-03-01T16:18:43;10.40;99.90
19025;DHT22;9645;51.448;6.260;2023-03-01T16:21:18;10.70;99.90
19025;DHT22;9645;51.448;6.260;2023-03-01T16:23:46;11.00;99.90
19025;DHT22;9645;51.448;6.260;2023-03-01T16:28:42;10.90;99.90
19025;DHT22;9645;51.448;6.260;2023-03-01T16:31:10;10.50;99.90
19025;DHT22;9645;51.448;6.260;2023-03-01T16:33:37;10.10;99.90
19025;DHT22;9645;51.448;6.260;2023-03-01T16:36:09;9.50;99.90
19025;DHT22;9645;51.448;6.260;2023-03-01T16:38:38;8.90;99.90
19025;DHT22;9645;51.448;6.260;2023-03-01T16:43:33;7.80;99.90
19025;DHT22;9645;51.448;6.260;2023-03-01T16:48:29;7.00;99.90
19025;DHT22;9645;51.448;6.260;2023-03-01T16:50:58;6.80;99.90
19025;DHT22;9645;51.448;6.260;2023-03-01T16:53:26;6.60;99.90
19025;DHT22;9645;51.448;6.260;2023-03-01T16:55:55;6.40;99.90
19025;DHT22;9645;51.448;6.260;2023-03-01T16:58:22;6.20;99.90
19025;DHT22;9645;51.448;6.260;2023-03-01T17:00:50;6.10;99.90
19025;DHT22;9645;51.448;6.260;2023-03-01T17:03:19;6.00;99.90
19025;DHT22;9645;51.448;6.260;2023-03-01T17:05:46;5.90;99.90
19025;DHT22;9645;51.448;6.260;2023-03-01T17:08:13;5.70;99.90
19025;DHT22;9645;51.448;6.260;2023-03-01T17:10:41;5.60;99.90
19025;DHT22;9645;51.448;6.260;2023-03-01T17:13:10;5.40;99.90
19025;DHT22;9645;51.448;6.260;2023-03-01T17:15:38;5.40;99.90
19025;DHT22;9645;51.448;6.260;2023-03-01T17:18:06;5.30;99.90
19025;DHT22;9645;51.448;6.260;2023-03-01T17:23:01;5.10;99.90
19025;DHT22;9645;51.448;6.260;2023-03-01T17:30:25;4.90;99.90
19025;DHT22;9645;51.448;6.260;2023-03-01T17:32:51;4.90;99.90
19025;DHT22;9645;51.448;6.260;2023-03-01T17:37:48;4.60;99.90
19025;DHT22;9645;51.448;6.260;2023-03-01T17:42:42;4.50;99.90
19025;DHT22;9645;51.448;6.260;2023-03-01T17:45:10;4.50;99.90
19025;DHT22;9645;51.448;6.260;2023-03-01T17:47:41;4.40;99.90
19025;DHT22;9645;51.448;6.260;2023-03-01T17:50:09;4.30;99.90
19025;DHT22;9645;51.448;6.260;2023-03-01T17:52:37;4.20;99.90
19025;DHT22;9645;51.448;6.260;2023-03-01T17:55:05;4.10;99.90
19025;DHT22;9645;51.448;6.260;2023-03-01T17:57:36;4.20;99.90
19025;DHT22;9645;51.448;6.260;2023-03-01T18:00:10;4.20;99.90
19025;DHT22;9645;51.448;6.260;2023-03-01T18:02:39;4.30;99.90
19025;DHT22;9645;51.448;6.260;2023-03-01T18:05:07;4.10;99.90
19025;DHT22;9645;51.448;6.260;2023-03-01T18:07:34;4.00;99.90
19025;DHT22;9645;51.448;6.260;2023-03-01T18:10:02;4.00;99.90
19025;DHT22;9645;51.448;6.260;2023-03-01T18:12:30;4.00;99.90
19025;DHT22;9645;51.448;6.260;2023-03-01T18:17:24;3.90;99.90
19025;DHT22;9645;51.448;6.260;2023-03-01T18:19:53;3.70;99.90
19025;DHT22;9645;51.448;6.260;2023-03-01T18:24:51;3.60;99.90
19025;DHT22;9645;51.448;6.260;2023-03-01T18:27:18;3.50;99.90
19025;DHT22;9645;51.448;6.260;2023-03-01T18:29:46;3.40;99.90
19025;DHT22;9645;51.448;6.260;2023-03-01T18:32:14;3.30;99.90
19025;DHT22;9645;51.448;6.260;2023-03-01T18:37:10;3.20;99.90
19025;DHT22;9645;51.448;6.260;2023-03-01T18:42:06;3.30;99.90
19025;DHT22;9645;51.448;6.260;2023-03-01T18:44:33;3.30;99.90
19025;DHT22;9645;51.448;6.260;2023-03-01T18:54:23;3.20;99.90
19025;DHT22;9645;51.448;6.260;2023-03-01T19:01:45;3.00;99.90
19025;DHT22;9645;51.448;6.260;2023-03-01T19:04:12;2.90;99.90
19025;DHT22;9645;51.448;6.260;2023-03-01T19:09:07;2.90;99.90
19025;DHT22;9645;51.448;6.260;2023-03-01T19:11:37;2.80;99.90
19025;DHT22;9645;51.448;6.260;2023-03-01T19:16:33;2.80;99.90
19025;DHT22;9645;51.448;6.260;2023-03-01T19:19:02;2.80;99.90
19025;DHT22;9645;51.448;6.260;2023-03-01T19:21:31;2.80;99.90
19025;DHT22;9645;51.448;6.260;2023-03-01T19:23:59;2.80;99.90
19025;DHT22;9645;51.448;6.260;2023-03-01T19:26:28;2.70;99.90
19025;DHT22;9645;51.448;6.260;2023-03-01T19:28:56;2.80;99.90
19025;DHT22;9645;51.448;6.260;2023-03-01T19:31:25;2.70;99.90
19025;DHT22;9645;51.448;6.260;2023-03-01T19:33:53;2.70;99.90
19025;DHT22;9645;51.448;6.260;2023-03-01T19:41:24;5.40;99.90
19025;DHT22;9645;51.448;6.260;2023-03-01T19:43:51;2.40;99.90